createdAt,value
2018-12-21T00:02:08.246Z,7.56
2018-12-21T00:04:39.801Z,7.59
2018-12-21T00:07:11.572Z,7.63
2018-12-21T00:09:44.240Z,7.61
2018-12-21T00:12:14.823Z,7.56
2018-12-21T00:14:46.248Z,7.60
2018-12-21T00:17:17.746Z,7.59
2018-12-21T00:19:49.243Z,7.62
2018-12-21T00:22:19.905Z,7.66
2018-12-21T00:24:50.968Z,7.69
2018-12-21T00:27:21.569Z,7.69
2018-12-21T00:29:52.645Z,7.65
2018-12-21T00:32:29.838Z,7.64
2018-12-21T00:35:05.780Z,7.63
2018-12-21T00:37:42.490Z,7.66
2018-12-21T00:40:18.573Z,7.64
2018-12-21T00:42:55.289Z,7.69
2018-12-21T00:48:25.998Z,7.68
2018-12-21T00:50:57.830Z,7.69
2018-12-21T00:53:30.491Z,7.73
2018-12-21T00:56:02.448Z,7.81
2018-12-21T00:58:35.778Z,7.79
2018-12-21T01:01:07.878Z,7.83
2018-12-21T01:03:40.815Z,7.86
2018-12-21T01:06:14.501Z,7.77
2018-12-21T01:08:46.301Z,7.77
2018-12-21T01:11:17.653Z,7.73
2018-12-21T01:13:48.295Z,7.68
2018-12-21T01:16:18.898Z,7.71
2018-12-21T01:18:49.916Z,7.74
2018-12-21T01:21:21.097Z,7.75
2018-12-21T01:23:51.655Z,7.73
2018-12-21T01:26:22.925Z,7.78
2018-12-21T01:28:53.508Z,7.76
2018-12-21T01:31:25.718Z,7.78
2018-12-21T01:33:56.263Z,7.76
2018-12-21T01:36:27.842Z,7.74
2018-12-21T01:38:58.478Z,7.73
2018-12-21T01:41:29.693Z,7.73
2018-12-21T01:44:00.821Z,7.69
2018-12-21T01:46:32.133Z,7.67
2018-12-21T01:49:06.471Z,7.66
2018-12-21T01:51:46.896Z,7.66
2018-12-21T01:54:12.421Z,7.65
2018-12-21T01:56:44.494Z,7.61
2018-12-21T01:59:15.042Z,7.62
2018-12-21T02:01:48.738Z,7.62
2018-12-21T02:04:20.848Z,7.53
2018-12-21T02:06:54.136Z,7.55
2018-12-21T02:09:25.613Z,7.56
2018-12-21T02:11:56.277Z,7.56
2018-12-21T02:14:27.942Z,7.59
2018-12-21T02:16:58.549Z,7.53
2018-12-21T02:19:29.165Z,7.53
2018-12-21T02:21:59.830Z,7.53
2018-12-21T02:24:31.326Z,7.57
2018-12-21T02:27:01.926Z,7.56
2018-12-21T02:29:34.003Z,7.64
2018-12-21T02:32:05.210Z,7.64
2018-12-21T02:34:36.392Z,7.63
2018-12-21T02:37:08.160Z,7.63
2018-12-21T02:39:40.297Z,7.64
2018-12-21T02:42:11.149Z,7.63
2018-12-21T02:44:41.747Z,7.66
2018-12-21T02:47:13.293Z,7.70
2018-12-21T02:49:44.061Z,7.73
2018-12-21T02:52:16.664Z,7.76
2018-12-21T02:54:48.798Z,7.78
2018-12-21T02:57:19.391Z,7.82
2018-12-21T02:59:53.264Z,7.82
2018-12-21T03:02:24.442Z,7.84
2018-12-21T03:04:55.663Z,7.88
2018-12-21T03:07:27.950Z,7.85
2018-12-21T03:09:58.513Z,7.85
2018-12-21T03:12:29.534Z,7.89
2018-12-21T03:15:01.242Z,7.90
2018-12-21T03:17:32.047Z,7.91
2018-12-21T03:20:03.990Z,7.95
2018-12-21T03:22:35.525Z,7.96
2018-12-21T03:25:07.722Z,7.95
2018-12-21T03:27:39.838Z,7.95
2018-12-21T03:30:12.504Z,7.96
2018-12-21T03:32:44.531Z,7.95
2018-12-21T03:35:16.778Z,8.00
2018-12-21T03:37:49.855Z,7.99
2018-12-21T03:40:22.451Z,7.98
2018-12-21T03:42:53.801Z,8.00
2018-12-21T03:45:28.762Z,8.03
2018-12-21T03:48:00.901Z,8.03
2018-12-21T03:50:33.651Z,8.09
2018-12-21T03:53:04.719Z,8.14
2018-12-21T03:55:36.822Z,8.12
2018-12-21T03:58:07.353Z,8.08
2018-12-21T04:00:38.350Z,8.14
2018-12-21T04:03:10.325Z,8.16
2018-12-21T04:05:42.277Z,8.17
2018-12-21T04:08:12.818Z,8.21
2018-12-21T04:10:44.765Z,8.27
2018-12-21T04:13:15.578Z,8.31
2018-12-21T04:15:46.605Z,8.33
2018-12-21T04:18:17.402Z,8.34
2018-12-21T04:20:48.007Z,8.36
2018-12-21T04:23:18.891Z,8.40
2018-12-21T04:25:49.473Z,8.38
2018-12-21T04:28:20.510Z,8.42
2018-12-21T04:30:51.104Z,8.44
2018-12-21T04:33:21.684Z,8.47
2018-12-21T04:35:53.293Z,8.52
2018-12-21T04:38:23.868Z,8.54
2018-12-21T04:40:54.447Z,8.59
2018-12-21T04:43:25.011Z,8.61
2018-12-21T04:45:56.012Z,8.64
2018-12-21T04:48:26.585Z,8.63
2018-12-21T04:50:57.131Z,8.60
2018-12-21T04:53:27.843Z,8.62
2018-12-21T04:55:58.438Z,8.61
2018-12-21T04:58:29.081Z,8.58
2018-12-21T05:01:00.031Z,8.60
2018-12-21T05:03:30.841Z,8.59
2018-12-21T05:06:01.513Z,8.56
2018-12-21T05:08:32.054Z,8.56
2018-12-21T05:11:02.624Z,8.57
2018-12-21T05:13:33.178Z,8.48
2018-12-21T05:16:04.178Z,8.50
2018-12-21T05:18:34.766Z,8.55
2018-12-21T05:21:06.279Z,8.59
2018-12-21T05:23:37.145Z,8.64
2018-12-21T05:26:07.736Z,8.68
2018-12-21T05:28:38.425Z,8.60
2018-12-21T05:31:09.021Z,8.65
2018-12-21T05:33:39.862Z,8.74
2018-12-21T05:36:10.421Z,8.79
2018-12-21T05:38:41.314Z,8.80
2018-12-21T05:41:12.460Z,8.83
2018-12-21T05:43:44.346Z,8.84
2018-12-21T05:46:14.906Z,8.90
2018-12-21T05:48:48.283Z,8.92
2018-12-21T05:51:18.826Z,8.93
2018-12-21T05:53:53.005Z,8.92
2018-12-21T05:56:23.957Z,8.93
2018-12-21T05:58:59.161Z,8.94
2018-12-21T06:01:29.737Z,8.91
2018-12-21T06:04:02.065Z,8.93
2018-12-21T06:06:35.346Z,8.94
2018-12-21T06:09:09.204Z,8.97
2018-12-21T06:11:43.816Z,8.99
2018-12-21T06:14:14.354Z,8.97
2018-12-21T06:16:45.576Z,9.03
2018-12-21T06:19:19.046Z,9.08
2018-12-21T06:21:51.665Z,9.13
2018-12-21T06:24:23.518Z,9.20
2018-12-21T06:26:55.093Z,9.25
2018-12-21T06:29:25.643Z,9.22
2018-12-21T06:33:35.168Z,9.25
2018-12-21T06:36:12.169Z,9.34
2018-12-21T06:38:43.933Z,9.34
2018-12-21T06:41:14.499Z,9.29
2018-12-21T06:43:45.876Z,9.33
2018-12-21T06:46:16.473Z,9.34
2018-12-21T06:48:49.030Z,9.38
2018-12-21T06:51:24.378Z,9.42
2018-12-21T06:54:02.849Z,9.43
2018-12-21T06:56:34.020Z,9.46
2018-12-21T06:59:05.035Z,9.35
2018-12-21T07:01:36.607Z,9.38
2018-12-21T07:04:07.182Z,9.42
2018-12-21T07:06:37.786Z,9.44
2018-12-21T07:09:10.282Z,9.38
2018-12-21T07:11:42.614Z,9.21
2018-12-21T07:14:14.975Z,9.15
2018-12-21T07:16:45.520Z,9.16
2018-12-21T07:19:17.573Z,9.17
2018-12-21T07:21:48.677Z,9.13
2018-12-21T07:24:21.475Z,9.05
2018-12-21T07:26:53.070Z,8.99
2018-12-21T07:29:25.654Z,8.97
2018-12-21T07:31:57.593Z,8.97
2018-12-21T07:34:29.616Z,8.92
2018-12-21T07:37:01.962Z,8.84
2018-12-21T07:39:33.719Z,8.79
2018-12-21T07:42:04.342Z,8.77
2018-12-21T07:44:34.938Z,8.73
2018-12-21T07:47:07.608Z,8.75
2018-12-21T07:49:39.026Z,8.73
2018-12-21T07:52:09.686Z,8.68
2018-12-21T07:54:41.482Z,8.68
2018-12-21T07:57:12.970Z,8.74
2018-12-21T07:59:44.090Z,8.76
2018-12-21T08:02:14.715Z,8.76
2018-12-21T08:04:46.264Z,8.72
2018-12-21T08:07:17.494Z,8.78
2018-12-21T08:09:49.192Z,8.67
2018-12-21T08:12:20.686Z,8.56
2018-12-21T08:14:51.289Z,8.50
2018-12-21T08:17:24.934Z,8.46
2018-12-21T08:19:55.583Z,8.45
2018-12-21T08:22:27.761Z,8.43
2018-12-21T08:24:58.370Z,8.45
2018-12-21T08:27:30.634Z,8.43
2018-12-21T08:30:02.447Z,8.47
2018-12-21T08:32:34.614Z,8.47
2018-12-21T08:35:07.447Z,8.41
2018-12-21T08:37:38.060Z,8.44
2018-12-21T08:40:10.439Z,8.40
2018-12-21T08:42:41.038Z,8.34
2018-12-21T08:45:12.581Z,8.38
2018-12-21T08:47:44.585Z,8.46
2018-12-21T08:50:16.370Z,8.48
2018-12-21T08:52:47.548Z,8.54
2018-12-21T08:55:18.202Z,8.56
2018-12-21T08:57:49.715Z,8.61
2018-12-21T09:00:22.042Z,8.59
2018-12-21T09:02:52.831Z,8.60
2018-12-21T09:05:25.261Z,8.64
2018-12-21T09:07:56.968Z,8.68
2018-12-21T09:10:27.606Z,8.75
2018-12-21T09:12:58.530Z,8.79
2018-12-21T09:15:30.479Z,8.79
2018-12-21T09:18:01.309Z,8.76
2018-12-21T09:20:33.074Z,8.73
2018-12-21T09:23:05.646Z,8.66
2018-12-21T09:25:38.056Z,8.72
2018-12-21T09:28:09.587Z,8.68
2018-12-21T09:30:41.351Z,8.68
2018-12-21T09:33:13.886Z,8.72
2018-12-21T09:35:44.505Z,8.71
2018-12-21T09:38:16.719Z,8.67
2018-12-21T09:40:48.007Z,8.68
2018-12-21T09:43:18.584Z,8.70
2018-12-21T09:45:49.212Z,8.77
2018-12-21T09:48:19.995Z,8.79
2018-12-21T09:50:50.621Z,8.84
2018-12-21T09:53:21.222Z,8.91
2018-12-21T09:55:52.409Z,8.90
2018-12-21T09:58:23.247Z,8.96
2018-12-21T10:00:55.914Z,9.03
2018-12-21T10:03:26.473Z,9.05
2018-12-21T10:05:58.357Z,9.09
2018-12-21T10:08:29.757Z,9.10
2018-12-21T10:11:00.376Z,9.14
2018-12-21T10:13:31.021Z,9.19
2018-12-21T10:16:02.693Z,9.21
2018-12-21T10:18:35.874Z,9.26
2018-12-21T10:21:06.474Z,9.26
2018-12-21T10:23:38.014Z,9.33
2018-12-21T10:26:09.688Z,9.29
2018-12-21T10:28:40.299Z,9.34
2018-12-21T10:31:10.894Z,9.33
2018-12-21T10:33:42.882Z,9.30
2018-12-21T10:36:13.491Z,9.34
2018-12-21T10:38:46.251Z,9.33
2018-12-21T10:41:17.709Z,9.40
2018-12-21T10:43:48.698Z,9.42
2018-12-21T10:46:21.440Z,9.42
2018-12-21T10:48:52.889Z,9.48
2018-12-21T10:51:24.469Z,9.47
2018-12-21T10:53:55.074Z,9.52
2018-12-21T10:56:26.864Z,9.54
2018-12-21T10:58:58.450Z,9.54
2018-12-21T11:01:29.879Z,9.54
2018-12-21T11:04:01.466Z,9.62
2018-12-21T11:06:32.340Z,9.62
2018-12-21T11:09:05.003Z,9.60
2018-12-21T11:11:36.694Z,9.65
2018-12-21T11:14:08.582Z,9.59
2018-12-21T11:16:40.134Z,9.63
2018-12-21T11:19:12.118Z,9.58
2018-12-21T11:21:43.650Z,9.62
2018-12-21T11:24:14.234Z,9.65
2018-12-21T11:26:44.886Z,9.59
2018-12-21T11:29:15.482Z,9.56
2018-12-21T11:31:46.123Z,9.56
2018-12-21T11:34:17.654Z,9.54
2018-12-21T11:36:50.335Z,9.51
2018-12-21T11:39:21.821Z,9.47
2018-12-21T11:41:53.066Z,9.50
2018-12-21T11:44:23.665Z,9.48
2018-12-21T11:46:54.265Z,9.48
2018-12-21T11:49:25.866Z,9.49
2018-12-21T11:51:59.202Z,9.52
2018-12-21T11:54:30.749Z,9.53
2018-12-21T11:57:02.337Z,9.59
2018-12-21T11:59:35.842Z,9.60
2018-12-21T12:02:07.210Z,9.64
2018-12-21T12:04:41.015Z,9.62
2018-12-21T12:07:11.647Z,9.68
2018-12-21T12:09:42.906Z,9.71
2018-12-21T12:12:13.537Z,9.74
2018-12-21T12:14:44.533Z,9.71
2018-12-21T12:17:15.259Z,9.79
2018-12-21T12:19:46.916Z,9.77
2018-12-21T12:22:17.481Z,9.72
2018-12-21T12:24:52.705Z,9.71
2018-12-21T12:27:22.083Z,9.72
2018-12-21T12:29:52.813Z,9.76
2018-12-21T12:32:24.126Z,9.77
2018-12-21T12:34:54.973Z,9.81
2018-12-21T12:37:27.786Z,9.84
2018-12-21T12:39:59.653Z,9.90
2018-12-21T12:42:31.350Z,9.91
2018-12-21T12:45:01.986Z,9.93
2018-12-21T12:47:34.497Z,9.96
2018-12-21T12:50:07.631Z,9.94
2018-12-21T12:52:39.218Z,9.92
2018-12-21T12:55:13.220Z,9.88
2018-12-21T12:57:44.745Z,9.91
2018-12-21T13:00:16.042Z,9.93
2018-12-21T13:02:47.602Z,9.89
2018-12-21T13:05:18.339Z,9.94
2018-12-21T13:07:50.972Z,9.94
2018-12-21T13:10:21.598Z,9.93
2018-12-21T13:12:54.379Z,9.93
2018-12-21T13:15:26.979Z,9.94
2018-12-21T13:17:58.814Z,9.96
2018-12-21T13:20:31.095Z,10.03
2018-12-21T13:23:02.925Z,10.05
2018-12-21T13:25:34.159Z,10.14
2018-12-21T13:28:06.283Z,10.16
2018-12-21T13:30:36.894Z,10.22
2018-12-21T13:33:08.475Z,10.22
2018-12-21T13:35:39.685Z,10.27
2018-12-21T13:38:11.942Z,10.34
2018-12-21T13:40:42.618Z,10.39
2018-12-21T13:43:17.947Z,10.42
2018-12-21T13:45:48.570Z,10.42
2018-12-21T13:48:20.818Z,10.43
2018-12-21T13:50:51.420Z,10.39
2018-12-21T13:53:22.538Z,10.41
2018-12-21T13:55:53.852Z,10.40
2018-12-21T13:58:24.811Z,10.44
2018-12-21T14:00:55.431Z,10.45
2018-12-21T14:03:25.998Z,10.51
2018-12-21T14:05:56.576Z,10.53
2018-12-21T14:08:27.269Z,10.51
2018-12-21T14:10:58.018Z,10.49
2018-12-21T14:13:28.696Z,10.50
2018-12-21T14:15:59.434Z,10.53
2018-12-21T14:18:30.334Z,10.55
2018-12-21T14:21:00.911Z,10.55
2018-12-21T14:23:31.576Z,10.57
2018-12-21T14:26:02.250Z,10.56
2018-12-21T14:28:32.879Z,10.61
2018-12-21T14:31:03.545Z,10.60
2018-12-21T14:33:34.247Z,10.62
2018-12-21T14:36:05.301Z,10.64
2018-12-21T14:38:35.946Z,10.63
2018-12-21T14:41:06.605Z,10.64
2018-12-21T14:43:37.707Z,10.63
2018-12-21T14:46:08.794Z,10.63
2018-12-21T14:48:39.417Z,10.63
2018-12-21T14:51:10.054Z,10.63
2018-12-21T14:53:41.053Z,10.65
2018-12-21T14:56:11.668Z,10.69
2018-12-21T14:58:43.318Z,10.73
2018-12-21T15:01:14.311Z,10.77
2018-12-21T15:03:45.313Z,10.76
2018-12-21T15:06:16.013Z,10.80
2018-12-21T15:08:46.727Z,10.80
2018-12-21T15:11:17.445Z,10.79
2018-12-21T15:13:49.469Z,10.81
2018-12-21T15:16:20.941Z,10.82
2018-12-21T15:18:52.741Z,10.86
2018-12-21T15:21:25.146Z,10.88
2018-12-21T15:23:56.485Z,10.91
2018-12-21T15:26:27.701Z,10.99
2018-12-21T15:29:00.218Z,10.90
2018-12-21T15:31:31.826Z,10.92
2018-12-21T15:34:02.413Z,10.92
2018-12-21T15:36:35.469Z,10.94
2018-12-21T15:39:07.983Z,10.96
2018-12-21T15:41:40.020Z,10.97
2018-12-21T15:44:11.371Z,10.99
2018-12-21T15:46:42.710Z,11.00
2018-12-21T15:49:14.347Z,11.02
2018-12-21T15:51:47.001Z,11.05
2018-12-21T15:54:19.147Z,11.04
2018-12-21T15:56:50.760Z,11.04
2018-12-21T15:59:22.241Z,11.04
2018-12-21T16:01:52.983Z,11.02
2018-12-21T16:04:23.618Z,11.09
2018-12-21T16:06:56.334Z,11.12
2018-12-21T16:09:29.108Z,11.09
2018-12-21T16:12:00.395Z,11.11
2018-12-21T16:14:34.703Z,11.12
2018-12-21T16:17:05.650Z,11.15
2018-12-21T16:19:37.220Z,11.16
2018-12-21T16:22:08.546Z,11.23
2018-12-21T16:24:40.901Z,11.22
2018-12-21T16:27:11.525Z,11.22
2018-12-21T16:29:42.854Z,11.21
2018-12-21T16:32:14.621Z,11.26
2018-12-21T16:34:45.197Z,11.29
2018-12-21T16:37:16.437Z,11.32
2018-12-21T16:39:49.415Z,11.36
2018-12-21T16:42:20.046Z,11.43
2018-12-21T16:44:50.703Z,11.46
2018-12-21T16:47:22.522Z,11.46
2018-12-21T16:49:53.151Z,11.50
2018-12-21T16:52:27.889Z,11.54
2018-12-21T16:54:59.145Z,11.54
2018-12-21T16:57:32.641Z,11.51
2018-12-21T17:00:06.966Z,11.50
2018-12-21T17:02:38.141Z,11.52
2018-12-21T17:05:11.442Z,11.57
2018-12-21T17:07:42.974Z,11.61
2018-12-21T17:10:23.412Z,11.63
2018-12-21T17:12:54.169Z,11.66
2018-12-21T17:15:25.755Z,11.66
2018-12-21T17:17:56.813Z,11.67
2018-12-21T17:20:27.841Z,11.71
2018-12-21T17:22:58.522Z,11.72
2018-12-21T17:25:31.764Z,11.73
2018-12-21T17:28:05.190Z,11.79
2018-12-21T17:30:36.590Z,11.81
2018-12-21T17:33:07.670Z,11.82
2018-12-21T17:35:38.292Z,11.81
2018-12-21T17:38:10.255Z,11.82
2018-12-21T17:40:43.530Z,11.84
2018-12-21T17:43:15.199Z,11.92
2018-12-21T17:45:45.916Z,11.90
2018-12-21T17:48:17.947Z,11.89
2018-12-21T17:50:48.535Z,11.93
2018-12-21T17:53:19.458Z,11.96
2018-12-21T17:55:52.067Z,11.95
2018-12-21T17:58:24.221Z,11.93
2018-12-21T18:00:57.554Z,11.91
2018-12-21T18:03:42.137Z,11.88
2018-12-21T18:06:13.425Z,11.84
2018-12-21T18:08:44.218Z,11.87
2018-12-21T18:11:16.257Z,11.89
2018-12-21T18:13:48.284Z,11.88
2018-12-21T18:16:20.858Z,11.87
2018-12-21T18:18:54.995Z,11.87
2018-12-21T18:21:26.662Z,11.91
2018-12-21T18:23:59.034Z,11.86
2018-12-21T18:26:38.434Z,11.86
2018-12-21T18:29:04.868Z,11.90
2018-12-21T18:31:51.761Z,11.88
2018-12-21T18:34:32.736Z,11.86
2018-12-21T18:37:06.838Z,11.87
2018-12-21T18:39:38.005Z,11.86
2018-12-21T18:42:08.693Z,11.91
2018-12-21T18:44:39.358Z,11.94
2018-12-21T18:47:09.940Z,11.89
2018-12-21T18:49:40.590Z,11.87
2018-12-21T18:52:11.230Z,11.90
2018-12-21T18:54:41.927Z,11.91
2018-12-21T18:57:16.938Z,11.93
2018-12-21T18:59:47.719Z,11.98
2018-12-21T19:02:18.434Z,11.94
2018-12-21T19:04:49.304Z,11.91
2018-12-21T19:07:22.112Z,11.92
2018-12-21T19:09:53.223Z,11.92
2018-12-21T19:12:23.950Z,11.92
2018-12-21T19:14:55.036Z,11.93
2018-12-21T19:17:25.701Z,11.94
2018-12-21T19:19:56.662Z,11.91
2018-12-21T19:22:27.430Z,11.89
2018-12-21T19:24:58.129Z,11.84
2018-12-21T19:27:28.738Z,11.80
2018-12-21T19:29:59.505Z,11.76
2018-12-21T19:32:30.221Z,11.75
2018-12-21T19:35:01.038Z,11.72
2018-12-21T19:37:31.701Z,11.63
2018-12-21T19:40:02.342Z,11.66
2018-12-21T19:42:33.103Z,11.63
2018-12-21T19:45:04.338Z,11.58
2018-12-21T19:47:34.987Z,11.54
2018-12-21T19:50:07.431Z,11.52
2018-12-21T19:52:38.052Z,11.52
2018-12-21T19:56:21.879Z,11.52
2018-12-21T19:58:52.617Z,11.51
2018-12-21T20:01:23.595Z,11.49
2018-12-21T20:03:54.590Z,11.54
2018-12-21T20:06:25.189Z,11.54
2018-12-21T20:08:56.470Z,11.50
2018-12-21T20:11:27.102Z,11.52
2018-12-21T20:13:57.733Z,11.50
2018-12-21T20:16:29.666Z,11.53
2018-12-21T20:19:00.290Z,11.56
2018-12-21T20:21:30.942Z,11.60
2018-12-21T20:24:01.687Z,11.58
2018-12-21T20:26:32.611Z,11.60
2018-12-21T20:29:03.439Z,11.62
2018-12-21T20:31:34.068Z,11.63
2018-12-21T20:34:04.819Z,11.66
2018-12-21T20:36:35.510Z,11.68
2018-12-21T20:39:13.677Z,11.69
2018-12-21T20:41:44.731Z,11.71
2018-12-21T20:44:15.410Z,11.68
2018-12-21T20:46:46.010Z,11.67
2018-12-21T20:49:16.785Z,11.69
2018-12-21T20:51:47.498Z,11.67
2018-12-21T20:54:18.584Z,11.68
2018-12-21T20:56:53.927Z,11.69
2018-12-21T20:59:26.079Z,11.72
2018-12-21T21:01:56.778Z,11.74
2018-12-21T21:04:27.435Z,11.73
2018-12-21T21:06:58.042Z,11.73
2018-12-21T21:09:29.218Z,11.75
2018-12-21T21:11:59.850Z,11.77
2018-12-21T21:14:30.879Z,11.81
2018-12-21T21:17:01.529Z,11.78
2018-12-21T21:19:37.601Z,11.81
2018-12-21T21:22:08.299Z,11.76
2018-12-21T21:24:38.961Z,11.77
2018-12-21T21:27:09.636Z,11.76
2018-12-21T21:29:40.277Z,11.76
2018-12-21T21:32:11.060Z,11.76
2018-12-21T21:34:41.946Z,11.81
2018-12-21T21:37:12.793Z,11.83
2018-12-21T21:39:43.486Z,11.74
2018-12-21T21:42:14.711Z,11.71
2018-12-21T21:44:45.408Z,11.65
2018-12-21T21:47:16.281Z,11.64
2018-12-21T21:49:46.885Z,11.59
2018-12-21T21:52:17.895Z,11.59
2018-12-21T21:54:48.513Z,11.60
2018-12-21T21:57:19.115Z,11.59
2018-12-21T21:59:49.693Z,11.62
2018-12-21T22:02:20.826Z,11.65
2018-12-21T22:04:51.406Z,11.72
2018-12-21T22:07:23.054Z,11.76
2018-12-21T22:09:53.638Z,11.82
2018-12-21T22:12:24.390Z,11.86
2018-12-21T22:14:55.242Z,11.80
2018-12-21T22:17:26.290Z,11.81
2018-12-21T22:19:56.919Z,11.75
2018-12-21T22:22:27.675Z,11.75
2018-12-21T22:24:58.650Z,11.69
2018-12-21T22:27:29.345Z,11.63
2018-12-21T22:30:01.155Z,11.65
2018-12-21T22:32:31.819Z,11.60
2018-12-21T22:35:03.117Z,11.61
2018-12-21T22:37:33.851Z,11.65
2018-12-21T22:40:06.315Z,11.70
2018-12-21T22:42:36.963Z,11.74
2018-12-21T22:45:09.289Z,11.72
2018-12-21T22:47:39.917Z,11.74
2018-12-21T22:50:11.510Z,11.75
2018-12-21T22:52:42.118Z,11.75
2018-12-21T22:55:12.765Z,11.73
2018-12-21T22:57:43.469Z,11.77
2018-12-21T23:00:20.737Z,11.64
2018-12-21T23:02:51.402Z,11.53
2018-12-21T23:05:22.287Z,11.49
2018-12-21T23:07:52.899Z,11.55
2018-12-21T23:10:23.590Z,11.65
2018-12-21T23:12:54.222Z,11.68
2018-12-21T23:15:24.866Z,11.68
2018-12-21T23:17:55.919Z,11.76
2018-12-21T23:20:26.661Z,11.84
2018-12-21T23:22:57.294Z,11.81
2018-12-21T23:25:27.934Z,11.83
2018-12-21T23:28:05.034Z,11.82
2018-12-21T23:30:31.142Z,11.85
2018-12-21T23:33:01.755Z,11.83
2018-12-21T23:35:32.670Z,11.83
2018-12-21T23:38:03.238Z,11.89
2018-12-21T23:40:33.881Z,11.80
2018-12-21T23:43:04.510Z,11.68
2018-12-21T23:45:36.098Z,11.63
2018-12-21T23:48:06.738Z,11.58
2018-12-21T23:50:37.410Z,11.54
2018-12-21T23:53:08.013Z,11.51
2018-12-21T23:55:38.642Z,11.51
2018-12-21T23:58:13.634Z,11.46
